Nearby METAR Reports

 

KOXC - Oxford/Waterbury, Connecticut, USA
Distance from station: SE 8mi, 12km
Updated: Mon, 22-Jul-2019 9:14pm EDT
Rain, Overcast
Rain, Overcast
 Wind from N
Wind: N 16 mph , 26 km/h
Temperature: 66°F , 19°C
Dew Point: 66°F , 19°C
Humidity: 100%
Barometer: 29.74 inHg , 1007.1 hPa
Summary: Rain
Clouds: Overcast
Visibility: 10 miles , 16 km
Cloud details: Mostly cloudy 500 ft
Mostly cloudy 6000 ft
Overcast 7500 ft
2019/07/23 01:14 KOXC 230114Z AUTO 01014KT 10SM RA BKN005 BKN060 OVC075 19/19 A2974 RMK AO2 LTG DSNT E TSE0053B0055E0056 CIG 003V009 PRESFR P0008
KDXR - Danbury, Connecticut, USA
Distance from station: SW 19mi, 30km
Updated: Mon, 22-Jul-2019 8:53pm EDT
Rain, Mist, Overcast
Rain, Mist, Overcast
 Wind from NNE
Wind: NNE 8 mph , 13 km/h
Temperature: 70°F , 21°C
Dew Point: 68°F , 20°C
Humidity: 94%
Barometer: 29.75 inHg , 1007.5 hPa
Summary: Rain, Mist
Clouds: Overcast
Visibility: 6 miles , 10 km
Cloud details: Mostly cloudy 800 ft
Mostly cloudy 5500 ft
Overcast 10000 ft
2019/07/23 00:53 KDXR 230053Z COR 02007KT 6SM RA BR BKN008 BKN055 OVC100 21/20 A2975 RMK A02 PRESFR SLP070 P0017 T02060200
 
KMMK - Meriden, Connecticut, USA
Distance from station: E 20mi, 33km
Updated: Mon, 22-Jul-2019 9:22pm EDT
Rain, Overcast
Rain, Overcast
 Wind from N
Wind: N 12 mph , 19 km/h, Gust: 17 mph , 28 km/h
Temperature: 70°F , 21°C
Dew Point: 66°F , 19°C
Humidity: 88%
Barometer: 29.72 inHg , 1006.4 hPa
Summary: Rain
Clouds: Overcast
Visibility: 9 miles , 14 km
Cloud details: Partly cloudy 800 ft
Mostly cloudy 8500 ft
Overcast 11000 ft
2019/07/23 01:22 KMMK 230122Z AUTO 36010G15KT 9SM RA SCT008 BKN085 OVC110 21/19 A2972 RMK AO2 LTG DSNT E PRESFR T02060189 PNO $
KBDR - Bridgeport, Connecticut, USA
Distance from station: S 27mi, 44km
Updated: Mon, 22-Jul-2019 9:04pm EDT
Light rain, Mostly cloudy
Light rain, Mostly cloudy
 Wind from NE
Wind: NE 6 mph , 9 km/h
Temperature: 72°F , 22°C
Dew Point: 70°F , 21°C
Humidity: 94%
Barometer: 29.74 inHg , 1007.1 hPa
Summary: Light rain
Clouds: Mostly cloudy
Visibility: 10 miles , 16 km
Cloud details: Few Clouds 8000 ft
Mostly cloudy 11000 ft
2019/07/23 01:04 KBDR 230104Z 05005KT 10SM -RA FEW080 BKN110 22/21 A2974 RMK AO2 LTG DSNT E AND SE TS OHD MOV E P0002 T02170206 $
 
KHVN - New Haven/Tweed, Connecticut, USA
Distance from station: SE 27mi, 44km
Updated: Mon, 22-Jul-2019 9:11pm EDT
Overcast
Overcast
 
Temperature: 73°F , 23°C
Dew Point: 70°F , 21°C
Humidity: 89%
Barometer: 29.73 inHg , 1006.8 hPa
Clouds: Overcast
Visibility: 8 miles , 13 km
Cloud details: Mostly cloudy 400 ft
Mostly cloudy 4300 ft
Overcast 11000 ft
2019/07/23 01:11 KHVN 230111Z 8SM BKN004 BKN043 OVC110 23/21 A2973 RMK AO2 LTG DSNT NE T02280211 $
KHFD - Hartford/Brainar, Connecticut, USA
Distance from station: ENE 32mi, 52km
Updated: Mon, 22-Jul-2019 8:53pm EDT
Mist, Overcast
Mist, Overcast
 Wind from N
Wind: N 7 mph , 11 km/h
Temperature: 70°F , 21°C
Dew Point: 66°F , 19°C
Humidity: 88%
Barometer: 29.80 inHg , 1009.1 hPa
Summary: Mist
Clouds: Overcast
Visibility: 5 miles , 8 km
Cloud details: Overcast 1500 ft
2019/07/23 00:53 KHFD 230053Z 01006KT 5SM BR OVC015 21/19 A2980 RMK AO2 LTG DSNT ALQDS SLP089 T02060189
 
KPOU - Poughkeepsie, New York, USA
Distance from station: W 35mi, 56km
Updated: Mon, 22-Jul-2019 8:53pm EDT
Light rain, Mist, Overcast
Light rain, Mist, Overcast
 Wind from N
Wind: N 3 mph , 6 km/h
Temperature: 66°F , 19°C
Dew Point: 64°F , 18°C
Humidity: 94%
Barometer: 29.75 inHg , 1007.5 hPa
Summary: Light rain, Mist
Clouds: Overcast
Visibility: 2 miles , 3 km
Cloud details: Overcast 500 ft
2019/07/23 00:53 KPOU 230053Z 36003KT 2SM -RA BR OVC005 19/18 A2975 RMK AO2 LTG DSNT E AND SE SLP071 P0018 T01940183
KBDL - Windsor Locks, Connecticut, USA
Distance from station: NE 38mi, 62km
Updated: Mon, 22-Jul-2019 8:51pm EDT
Rain, Overcast
Rain, Overcast
 Wind from N
Wind: N 6 mph , 9 km/h
Temperature: 66°F , 19°C
Dew Point: 64°F , 18°C
Humidity: 94%
Barometer: 29.80 inHg , 1009.1 hPa
Summary: Rain
Clouds: Overcast
Visibility: 7 miles , 11 km
Cloud details: Few Clouds 800 ft
Overcast 2000 ft
2019/07/23 00:51 KBDL 230051Z 35005KT 7SM RA FEW008 OVC020 19/18 A2980 RMK AO2 LTG DSNT SE-W SLP089 P0007 T01940183 $
 
KSNC - Chester, Connecticut, USA
Distance from station: ESE 39mi, 63km
Updated: Mon, 22-Jul-2019 9:15pm EDT
Rain, Overcast
Rain, Overcast
 Wind from NE
Wind: NE 6 mph , 9 km/h
Temperature: 70°F , 21°C
Dew Point: 70°F , 21°C
Humidity: 100%
Barometer: 29.75 inHg , 1007.5 hPa
Summary: Rain
Clouds: Overcast
Visibility: 4 miles , 6 km
Cloud details: Mostly cloudy 100 ft
Overcast 800 ft
2019/07/23 01:15 KSNC 230115Z AUTO 04005KT 4SM RA BKN001 OVC008 21/21 A2975 RMK AO2
KHPN - White Plains, New York, USA
Distance from station: SW 42mi, 67km
Updated: Mon, 22-Jul-2019 8:56pm EDT
Light rain, Mist, Mostly cloudy
Light rain, Mist, Mostly cloudy
 Wind from varies
Wind: varies 3 mph , 6 km/h
Temperature: 72°F , 22°C
Dew Point: 70°F , 21°C
Humidity: 94%
Barometer: 29.76 inHg , 1007.8 hPa
Summary: Light rain, Mist
Clouds: Mostly cloudy
Visibility: 1 1/2 miles , 2.4 km
Cloud details: Mostly cloudy 500 ft
Mostly cloudy 1100 ft
2019/07/23 00:56 KHPN 230056Z VRB03KT 1 1/2SM -RA BR BKN005 BKN011 22/21 A2976 RMK AO2 SLP073 P0012 T02220211
 
KSWF - Newburgh/Stewart, New York, USA
Distance from station: W 45mi, 72km
Updated: Mon, 22-Jul-2019 8:45pm EDT
Rain mist, Overcast
Rain mist, Overcast
 Wind from varies
Wind: varies 5 mph , 7 km/h
Temperature: 66°F , 19°C
Dew Point: 66°F , 19°C
Humidity: 100%
Barometer: 29.78 inHg , 1008.5 hPa
Summary: Rain Mist
Clouds: Overcast
Visibility: 3 miles , 5 km
Cloud details: Overcast 700 ft
2019/07/23 00:45 KSWF 230045Z VRB04KT 3SM RABR OVC007 19/19 A2978 RMK TS E35
KBAF - Westfield, Massachusetts, USA
Distance from station: NNE 50mi, 80km
Updated: Mon, 22-Jul-2019 8:53pm EDT
Light rain, Overcast
Light rain, Overcast
 Wind from N
Wind: N 7 mph , 11 km/h
Temperature: 64°F , 18°C
Dew Point: 63°F , 17°C
Humidity: 94%
Barometer: 29.81 inHg , 1009.5 hPa
Summary: Light rain
Clouds: Overcast
Visibility: 10 miles , 16 km
Cloud details: Partly cloudy 600 ft
Overcast 2100 ft
2019/07/23 00:53 KBAF 230053Z 36006KT 10SM -RA SCT006 OVC021 18/17 A2981 RMK AO2 SLP091 P0002 T01830172